Eddington, ME (04428)

9:53 PM EST on December 28, 2014 (GMT -0500)
Springy Pond | Change Station
CLOSE
Current Station
Personal Weather Station
Location: Otis, ME
Elevation: 300 ft
Nearby Weather Stations

Elev 300 ft 44.76 °N, 68.49 °W | Updated 1 minute ago

Overcast
Overcast
36.3 °F
Feels Like 36 °F
N
1.8
Wind Variable Wind from West
Gusts 4.0 mph

Today
High -- | Low -- °F
--% Chance of Precip.
Yesterday
High -- | Low -- °F
Precip. -- in
7:11 AM 4:00 PM
First Quarter, 54% visible
Pressure 29.84 in
Visibility 10.0 miles
Clouds Mostly Cloudy 5000 ft
Overcast 25000 ft
Windchill 36 °F
Dew Point 23 °F
Humidity 57%
Rainfall 0.29 in
Snow Depth Not available.
UV 0 out of 12
Pollen .10 out of 12
Air Quality Not available.
Flu Activity Not available.
METAR KBGR 290153Z 27006KT 10SM BKN050 OVC250 03/M04 A2983 RMK AO2 SLP103 T00281039

More Conditions Fewer Conditions

Pressure 29.84 in
Visibility 10.0 miles
Clouds Mostly Cloudy 5000 ft
Overcast 25000 ft
Windchill 36 °F
Dew Point 23 °F
Humidity 57%
Rainfall 0.29 in
Snow Depth Not available.
UV 0 out of 12
Pollen .10 out of 12
Air Quality Not available.
Flu Activity Not available.
METAR KBGR 290153Z 27006KT 10SM BKN050 OVC250 03/M04 A2983 RMK AO2 SLP103 T00281039

More Conditions Fewer Conditions

10-Day Weather Forecast

Almanac

Astronomy

Dec. 28, 2014 Rise Set
Actual Time
Civil Twilight
Nautical Twilight
Astronomical Twilight
Moon
Length of Visible Light
Length of Day
Tomorrow will be .
, % of the Moon is Illuminated

Today's Extremes

State Highs State Lows

Community

WunderPhotos

Upload Photos

1,781,504 photos uploaded!

WunderBlogs® & News

Nearby

Air Quality

  Air Quality AQ Index Pollutant
Not available.

Snow Depth

Station Depth Elevation

Earthquake Activity

City Distance Mag. Time & Date
Minimum magnitude displayed is 2.5.

Coastal Water Temperatures

Place Temperature

Nearby Weather Stations